AAL506 KPHX-KSBA
Flight info
| Callsign | AAL506 |
|---|---|
| Flight time | 1h 10m |
| Altitude | 36000 |
| Route | KEENS3 HRRBR CURIV J212 PSP PORPS PITBL2 |
| Aircraft | B738/M-SDE2E3FGHIRWXY/LB1 |
Departure
| Time | 2026-05-08 23:46 |
|---|---|
| Airport | Phoenix Sky Harbor International Airport (KPHX) |
Arrival
| Time | 2026-05-09 00:57 |
|---|---|
| Airport | Santa Barbara Municipal Airport (KSBA) |
| Time | Latitude | Longitude | Altitude | Speed | Heading |
|---|---|---|---|---|---|
| 2026-05-08 23:21 | 33.43753 | -111.99989 | 1137 ft | 0 kts | 90° |
| 2026-05-08 23:34 | 33.43753 | -111.99990 | 1137 ft | 0 kts | 90° |
| 2026-05-08 23:35 | 33.43753 | -112.00006 | 1137 ft | 2 kts | 90° |
| 2026-05-08 23:35 | 33.43748 | -112.00023 | 1137 ft | 2 kts | 49° |
| 2026-05-08 23:35 | 33.43736 | -112.00033 | 1137 ft | 2 kts | 17° |
| 2026-05-08 23:35 | 33.43722 | -112.00034 | 1137 ft | 2 kts | 351° |
| 2026-05-08 23:36 | 33.43708 | -112.00033 | 1137 ft | 2 kts | 0° |
| 2026-05-08 23:36 | 33.43702 | -112.00033 | 1137 ft | 0 kts | 359° |
| 2026-05-08 23:40 | 33.43730 | -112.00033 | 1137 ft | 8 kts | 359° |
| 2026-05-08 23:40 | 33.43800 | -112.00034 | 1137 ft | 11 kts | 359° |
| 2026-05-08 23:40 | 33.43886 | -112.00050 | 1138 ft | 13 kts | 322° |
| 2026-05-08 23:41 | 33.43903 | -112.00168 | 1138 ft | 16 kts | 269° |
| 2026-05-08 23:41 | 33.43903 | -112.00280 | 1137 ft | 7 kts | 270° |
| 2026-05-08 23:41 | 33.43901 | -112.00340 | 1137 ft | 8 kts | 256° |
| 2026-05-08 23:41 | 33.43848 | -112.00377 | 1137 ft | 11 kts | 184° |
| 2026-05-08 23:42 | 33.43760 | -112.00380 | 1137 ft | 13 kts | 181° |
| 2026-05-08 23:42 | 33.43651 | -112.00381 | 1137 ft | 17 kts | 179° |
| 2026-05-08 23:42 | 33.43521 | -112.00382 | 1135 ft | 19 kts | 181° |
| 2026-05-08 23:42 | 33.43378 | -112.00383 | 1134 ft | 21 kts | 179° |
| 2026-05-08 23:43 | 33.43258 | -112.00378 | 1133 ft | 15 kts | 166° |
| 2026-05-08 23:43 | 33.43212 | -112.00272 | 1132 ft | 16 kts | 88° |
| 2026-05-08 23:43 | 33.43216 | -112.00133 | 1132 ft | 17 kts | 88° |
| 2026-05-08 23:43 | 33.43216 | -111.99979 | 1132 ft | 18 kts | 90° |
| 2026-05-08 23:44 | 33.43215 | -111.99816 | 1131 ft | 20 kts | 90° |
| 2026-05-08 23:44 | 33.43215 | -111.99644 | 1131 ft | 21 kts | 90° |
| 2026-05-08 23:44 | 33.43216 | -111.99468 | 1132 ft | 15 kts | 89° |
| 2026-05-08 23:44 | 33.43221 | -111.99377 | 1133 ft | 9 kts | 82° |
| 2026-05-08 23:45 | 33.43209 | -111.99310 | 1133 ft | 8 kts | 154° |
| 2026-05-08 23:45 | 33.43157 | -111.99326 | 1134 ft | 7 kts | 211° |
| 2026-05-08 23:45 | 33.43107 | -111.99380 | 1133 ft | 12 kts | 248° |
| 2026-05-08 23:45 | 33.43104 | -111.99530 | 1132 ft | 36 kts | 270° |
| 2026-05-08 23:46 | 33.43104 | -112.00172 | 1131 ft | 115 kts | 270° |
| 2026-05-08 23:46 | 33.43103 | -112.01396 | 1251 ft | 169 kts | 270° |
| 2026-05-08 23:46 | 33.43098 | -112.02821 | 1993 ft | 180 kts | 271° |
| 2026-05-08 23:46 | 33.43004 | -112.04315 | 2803 ft | 190 kts | 257° |
| 2026-05-08 23:47 | 33.42577 | -112.05744 | 3764 ft | 181 kts | 252° |
| 2026-05-08 23:47 | 33.42242 | -112.07222 | 4342 ft | 195 kts | 260° |
| 2026-05-08 23:47 | 33.41997 | -112.08817 | 5043 ft | 202 kts | 262° |
| 2026-05-08 23:47 | 33.41723 | -112.10512 | 5653 ft | 218 kts | 258° |
| 2026-05-08 23:48 | 33.41266 | -112.12320 | 6271 ft | 234 kts | 253° |
| 2026-05-08 23:48 | 33.40726 | -112.14175 | 6913 ft | 248 kts | 253° |
| 2026-05-08 23:48 | 33.40149 | -112.16181 | 7531 ft | 263 kts | 253° |
| 2026-05-08 23:48 | 33.39549 | -112.18294 | 8196 ft | 276 kts | 253° |
| 2026-05-08 23:49 | 33.39073 | -112.20539 | 8855 ft | 287 kts | 265° |
| 2026-05-08 23:49 | 33.39123 | -112.22905 | 9807 ft | 285 kts | 281° |
| 2026-05-08 23:49 | 33.39523 | -112.25252 | 10616 ft | 292 kts | 285° |
| 2026-05-08 23:49 | 33.39988 | -112.27621 | 11276 ft | 304 kts | 286° |
| 2026-05-08 23:50 | 33.40495 | -112.30172 | 11689 ft | 324 kts | 285° |
| 2026-05-08 23:50 | 33.40981 | -112.32861 | 12200 ft | 341 kts | 284° |
| 2026-05-08 23:50 | 33.41443 | -112.35698 | 12742 ft | 356 kts | 283° |
| 2026-05-08 23:50 | 33.41894 | -112.38659 | 13507 ft | 363 kts | 283° |
| 2026-05-08 23:51 | 33.42331 | -112.41625 | 14282 ft | 369 kts | 283° |
| 2026-05-08 23:51 | 33.42776 | -112.44681 | 15059 ft | 375 kts | 283° |
| 2026-05-08 23:51 | 33.43221 | -112.47735 | 15791 ft | 381 kts | 283° |
| 2026-05-08 23:51 | 33.43684 | -112.50901 | 16487 ft | 388 kts | 283° |
| 2026-05-08 23:52 | 33.44144 | -112.54045 | 17253 ft | 391 kts | 283° |
| 2026-05-08 23:52 | 33.44616 | -112.57297 | 17990 ft | 396 kts | 282° |
| 2026-05-08 23:52 | 33.44996 | -112.60523 | 18794 ft | 398 kts | 278° |
| 2026-05-08 23:52 | 33.45188 | -112.63838 | 19554 ft | 402 kts | 275° |
| 2026-05-08 23:53 | 33.45261 | -112.67159 | 20252 ft | 406 kts | 273° |
| 2026-05-08 23:53 | 33.45285 | -112.70583 | 20962 ft | 409 kts | 272° |
| 2026-05-08 23:53 | 33.45295 | -112.73952 | 21657 ft | 411 kts | 272° |
| 2026-05-08 23:53 | 33.45304 | -112.77406 | 22321 ft | 414 kts | 272° |
| 2026-05-08 23:54 | 33.45475 | -112.80803 | 22945 ft | 416 kts | 278° |
| 2026-05-08 23:54 | 33.45915 | -112.84212 | 23568 ft | 418 kts | 282° |
| 2026-05-08 23:54 | 33.46514 | -112.87645 | 24216 ft | 421 kts | 284° |
| 2026-05-08 23:55 | 33.47865 | -112.94501 | 25393 ft | 427 kts | 285° |
| 2026-05-08 23:55 | 33.48553 | -112.97958 | 25936 ft | 430 kts | 285° |
| 2026-05-08 23:55 | 33.49234 | -113.01426 | 26519 ft | 433 kts | 285° |
| 2026-05-08 23:55 | 33.49912 | -113.04936 | 27030 ft | 436 kts | 284° |
| 2026-05-08 23:56 | 33.50589 | -113.08490 | 27577 ft | 439 kts | 284° |
| 2026-05-08 23:56 | 33.51255 | -113.12028 | 28082 ft | 442 kts | 284° |
| 2026-05-08 23:56 | 33.51930 | -113.15639 | 28570 ft | 445 kts | 284° |
| 2026-05-08 23:56 | 33.52602 | -113.19256 | 29051 ft | 449 kts | 284° |
| 2026-05-08 23:57 | 33.53274 | -113.22887 | 29537 ft | 451 kts | 284° |
| 2026-05-08 23:57 | 33.53957 | -113.26592 | 30023 ft | 454 kts | 284° |
| 2026-05-08 23:57 | 33.54630 | -113.30252 | 30489 ft | 457 kts | 284° |
| 2026-05-08 23:57 | 33.55319 | -113.34006 | 30955 ft | 459 kts | 284° |
| 2026-05-08 23:58 | 33.56004 | -113.37748 | 31603 ft | 457 kts | 284° |
| 2026-05-08 23:58 | 33.56681 | -113.41458 | 32368 ft | 451 kts | 284° |
| 2026-05-08 23:58 | 33.57348 | -113.45122 | 33040 ft | 447 kts | 284° |
| 2026-05-08 23:58 | 33.58004 | -113.48734 | 33600 ft | 446 kts | 284° |
| 2026-05-08 23:59 | 33.58662 | -113.52351 | 34124 ft | 445 kts | 284° |
| 2026-05-08 23:59 | 33.59325 | -113.55951 | 34701 ft | 443 kts | 284° |
| 2026-05-08 23:59 | 33.59992 | -113.59525 | 35254 ft | 441 kts | 284° |
| 2026-05-08 23:59 | 33.60664 | -113.63120 | 35805 ft | 439 kts | 284° |
| 2026-05-09 00:00 | 33.61331 | -113.66684 | 35908 ft | 444 kts | 283° |
| 2026-05-09 00:00 | 33.62672 | -113.73887 | 35894 ft | 439 kts | 283° |
| 2026-05-09 00:01 | 33.63996 | -113.81030 | 35892 ft | 441 kts | 283° |
| 2026-05-09 00:01 | 33.65309 | -113.88149 | 35897 ft | 440 kts | 283° |
| 2026-05-09 00:02 | 33.66632 | -113.95343 | 35892 ft | 441 kts | 283° |
| 2026-05-09 00:02 | 33.67939 | -114.02474 | 35892 ft | 439 kts | 283° |
| 2026-05-09 00:03 | 33.69245 | -114.09627 | 35885 ft | 440 kts | 283° |
| 2026-05-09 00:03 | 33.70545 | -114.16769 | 35869 ft | 440 kts | 283° |
| 2026-05-09 00:04 | 33.71846 | -114.23943 | 35854 ft | 440 kts | 283° |
| 2026-05-09 00:04 | 33.73147 | -114.31133 | 35837 ft | 440 kts | 283° |
| 2026-05-09 00:05 | 33.74432 | -114.38274 | 35819 ft | 439 kts | 283° |
| 2026-05-09 00:05 | 33.75727 | -114.45489 | 35808 ft | 440 kts | 283° |
| 2026-05-09 00:06 | 33.76997 | -114.52610 | 35799 ft | 439 kts | 283° |
| 2026-05-09 00:06 | 33.77816 | -114.59872 | 35807 ft | 441 kts | 276° |
| 2026-05-09 00:07 | 33.78219 | -114.67225 | 35803 ft | 442 kts | 275° |
| 2026-05-09 00:07 | 33.78566 | -114.74597 | 35811 ft | 442 kts | 275° |
| 2026-05-09 00:08 | 33.78939 | -114.81953 | 35812 ft | 441 kts | 275° |
| 2026-05-09 00:08 | 33.79335 | -114.89305 | 35821 ft | 442 kts | 275° |
| 2026-05-09 00:09 | 33.79738 | -114.96632 | 35825 ft | 442 kts | 275° |
| 2026-05-09 00:09 | 33.80141 | -115.03958 | 35823 ft | 442 kts | 275° |
| 2026-05-09 00:10 | 33.80547 | -115.11365 | 35826 ft | 444 kts | 275° |
| 2026-05-09 00:10 | 33.80944 | -115.18698 | 35830 ft | 442 kts | 275° |
| 2026-05-09 00:11 | 33.81338 | -115.26061 | 35829 ft | 442 kts | 275° |
| 2026-05-09 00:11 | 33.81728 | -115.33419 | 35854 ft | 442 kts | 275° |
| 2026-05-09 00:12 | 33.82112 | -115.40753 | 35886 ft | 442 kts | 275° |
| 2026-05-09 00:12 | 33.82494 | -115.48132 | 35911 ft | 442 kts | 275° |
| 2026-05-09 00:13 | 33.82872 | -115.55504 | 35954 ft | 442 kts | 275° |
| 2026-05-09 00:13 | 33.83243 | -115.62837 | 35989 ft | 443 kts | 275° |
| 2026-05-09 00:14 | 33.83610 | -115.70194 | 36029 ft | 442 kts | 275° |
| 2026-05-09 00:14 | 33.83973 | -115.77552 | 36063 ft | 442 kts | 275° |
| 2026-05-09 00:15 | 33.84331 | -115.84925 | 36058 ft | 442 kts | 275° |
| 2026-05-09 00:15 | 33.84687 | -115.92317 | 36063 ft | 442 kts | 275° |
| 2026-05-09 00:16 | 33.85036 | -115.99655 | 36047 ft | 443 kts | 275° |
| 2026-05-09 00:16 | 33.85384 | -116.07041 | 36044 ft | 444 kts | 275° |
| 2026-05-09 00:17 | 33.85727 | -116.14435 | 36014 ft | 444 kts | 275° |
| 2026-05-09 00:17 | 33.86068 | -116.21866 | 36016 ft | 445 kts | 275° |
| 2026-05-09 00:18 | 33.86400 | -116.29230 | 35995 ft | 445 kts | 275° |
| 2026-05-09 00:18 | 33.86734 | -116.36695 | 35985 ft | 446 kts | 275° |
| 2026-05-09 00:19 | 33.87384 | -116.44051 | 35975 ft | 443 kts | 283° |
| 2026-05-09 00:19 | 33.88850 | -116.51221 | 35963 ft | 442 kts | 288° |
| 2026-05-09 00:20 | 33.90613 | -116.58301 | 36026 ft | 443 kts | 289° |
| 2026-05-09 00:20 | 33.92408 | -116.65392 | 36090 ft | 445 kts | 289° |
| 2026-05-09 00:21 | 33.94173 | -116.72501 | 36133 ft | 444 kts | 288° |
| 2026-05-09 00:21 | 33.95913 | -116.79620 | 36152 ft | 445 kts | 288° |
| 2026-05-09 00:22 | 33.97652 | -116.86800 | 36150 ft | 447 kts | 288° |
| 2026-05-09 00:22 | 33.99371 | -116.93945 | 36126 ft | 446 kts | 288° |
| 2026-05-09 00:23 | 34.01089 | -117.01109 | 36107 ft | 447 kts | 289° |
| 2026-05-09 00:23 | 34.02810 | -117.08309 | 36091 ft | 447 kts | 288° |
| 2026-05-09 00:24 | 34.04514 | -117.15462 | 36075 ft | 447 kts | 288° |
| 2026-05-09 00:24 | 34.06227 | -117.22675 | 36064 ft | 446 kts | 289° |
| 2026-05-09 00:25 | 34.07923 | -117.29839 | 35808 ft | 450 kts | 289° |
| 2026-05-09 00:25 | 34.08780 | -117.33463 | 35520 ft | 448 kts | 289° |
| 2026-05-09 00:25 | 34.09633 | -117.37081 | 35233 ft | 447 kts | 289° |
| 2026-05-09 00:25 | 34.10478 | -117.40665 | 34949 ft | 448 kts | 289° |
| 2026-05-09 00:26 | 34.11332 | -117.44291 | 34672 ft | 448 kts | 289° |
| 2026-05-09 00:26 | 34.12176 | -117.47881 | 34418 ft | 448 kts | 289° |
| 2026-05-09 00:26 | 34.13022 | -117.51489 | 34161 ft | 449 kts | 288° |
| 2026-05-09 00:26 | 34.13876 | -117.55132 | 33904 ft | 450 kts | 288° |
| 2026-05-09 00:27 | 34.14724 | -117.58760 | 33648 ft | 450 kts | 288° |
| 2026-05-09 00:27 | 34.15573 | -117.62390 | 33411 ft | 450 kts | 288° |
| 2026-05-09 00:27 | 34.16414 | -117.65993 | 33178 ft | 451 kts | 288° |
| 2026-05-09 00:27 | 34.17267 | -117.69649 | 32944 ft | 453 kts | 288° |
| 2026-05-09 00:28 | 34.18120 | -117.73318 | 32708 ft | 453 kts | 288° |
| 2026-05-09 00:28 | 34.18966 | -117.76962 | 32472 ft | 453 kts | 288° |
| 2026-05-09 00:28 | 34.19815 | -117.80625 | 32240 ft | 453 kts | 288° |
| 2026-05-09 00:28 | 34.20661 | -117.84280 | 32007 ft | 453 kts | 288° |
| 2026-05-09 00:29 | 34.21508 | -117.87941 | 31771 ft | 454 kts | 288° |
| 2026-05-09 00:29 | 34.22358 | -117.91618 | 31539 ft | 456 kts | 288° |
| 2026-05-09 00:29 | 34.23206 | -117.95290 | 31305 ft | 456 kts | 287° |
| 2026-05-09 00:29 | 34.24056 | -117.98981 | 31070 ft | 456 kts | 288° |
| 2026-05-09 00:30 | 34.24899 | -118.02650 | 30837 ft | 456 kts | 288° |
| 2026-05-09 00:30 | 34.25748 | -118.06348 | 30604 ft | 457 kts | 287° |
| 2026-05-09 00:30 | 34.26587 | -118.10011 | 30373 ft | 457 kts | 287° |
| 2026-05-09 00:30 | 34.27434 | -118.13713 | 30141 ft | 457 kts | 287° |
| 2026-05-09 00:31 | 34.28174 | -118.17448 | 29799 ft | 460 kts | 284° |
| 2026-05-09 00:31 | 34.28776 | -118.21253 | 29410 ft | 460 kts | 282° |
| 2026-05-09 00:31 | 34.29298 | -118.25060 | 29053 ft | 458 kts | 281° |
| 2026-05-09 00:31 | 34.29787 | -118.28851 | 28721 ft | 461 kts | 281° |
| 2026-05-09 00:32 | 34.30275 | -118.32677 | 28387 ft | 463 kts | 281° |
| 2026-05-09 00:32 | 34.30771 | -118.36536 | 28052 ft | 464 kts | 281° |
| 2026-05-09 00:32 | 34.31273 | -118.40376 | 27721 ft | 465 kts | 281° |
| 2026-05-09 00:32 | 34.31779 | -118.44202 | 27390 ft | 467 kts | 281° |
| 2026-05-09 00:33 | 34.32296 | -118.48062 | 27058 ft | 467 kts | 281° |
| 2026-05-09 00:33 | 34.32821 | -118.51961 | 26723 ft | 468 kts | 281° |
| 2026-05-09 00:33 | 34.33340 | -118.55793 | 26394 ft | 469 kts | 281° |
| 2026-05-09 00:33 | 34.33865 | -118.59672 | 26034 ft | 469 kts | 281° |
| 2026-05-09 00:34 | 34.34391 | -118.63556 | 25647 ft | 459 kts | 281° |
| 2026-05-09 00:34 | 34.34894 | -118.67280 | 25269 ft | 448 kts | 280° |
| 2026-05-09 00:34 | 34.35390 | -118.70962 | 24886 ft | 438 kts | 280° |
| 2026-05-09 00:34 | 34.35873 | -118.74545 | 24505 ft | 429 kts | 280° |
| 2026-05-09 00:35 | 34.36343 | -118.78059 | 24123 ft | 420 kts | 280° |
| 2026-05-09 00:35 | 34.36730 | -118.81528 | 23741 ft | 412 kts | 277° |
| 2026-05-09 00:35 | 34.36916 | -118.84920 | 23373 ft | 404 kts | 272° |
| 2026-05-09 00:35 | 34.36876 | -118.88296 | 23043 ft | 396 kts | 268° |
| 2026-05-09 00:36 | 34.36715 | -118.91554 | 22792 ft | 386 kts | 266° |
| 2026-05-09 00:36 | 34.36501 | -118.94756 | 22542 ft | 376 kts | 266° |
| 2026-05-09 00:36 | 34.36274 | -118.97842 | 22297 ft | 367 kts | 265° |
| 2026-05-09 00:36 | 34.36048 | -119.00864 | 22050 ft | 358 kts | 266° |
| 2026-05-09 00:37 | 34.35827 | -119.03846 | 21801 ft | 350 kts | 266° |
| 2026-05-09 00:37 | 34.35616 | -119.06744 | 21552 ft | 342 kts | 266° |
| 2026-05-09 00:37 | 34.35417 | -119.09567 | 21306 ft | 334 kts | 266° |
| 2026-05-09 00:37 | 34.35329 | -119.12349 | 21060 ft | 327 kts | 271° |
| 2026-05-09 00:38 | 34.35402 | -119.15083 | 20813 ft | 326 kts | 274° |
| 2026-05-09 00:38 | 34.35544 | -119.17823 | 20452 ft | 328 kts | 275° |
| 2026-05-09 00:38 | 34.35700 | -119.20556 | 19996 ft | 329 kts | 275° |
| 2026-05-09 00:38 | 34.35854 | -119.23334 | 19506 ft | 330 kts | 275° |
| 2026-05-09 00:39 | 34.35996 | -119.26067 | 19026 ft | 330 kts | 274° |
| 2026-05-09 00:39 | 34.36132 | -119.28837 | 18542 ft | 331 kts | 274° |
| 2026-05-09 00:39 | 34.36265 | -119.31626 | 18058 ft | 331 kts | 274° |
| 2026-05-09 00:39 | 34.36392 | -119.34370 | 17579 ft | 331 kts | 274° |
| 2026-05-09 00:40 | 34.36519 | -119.37164 | 17102 ft | 331 kts | 274° |
| 2026-05-09 00:40 | 34.36642 | -119.39909 | 16599 ft | 331 kts | 274° |
| 2026-05-09 00:40 | 34.36766 | -119.42686 | 16137 ft | 331 kts | 274° |
| 2026-05-09 00:41 | 34.37013 | -119.48255 | 15124 ft | 331 kts | 274° |
| 2026-05-09 00:41 | 34.37115 | -119.50996 | 14679 ft | 328 kts | 272° |
| 2026-05-09 00:41 | 34.37149 | -119.53732 | 14247 ft | 320 kts | 271° |
| 2026-05-09 00:41 | 34.37148 | -119.56396 | 13805 ft | 314 kts | 271° |
| 2026-05-09 00:42 | 34.37143 | -119.58995 | 13346 ft | 308 kts | 271° |
| 2026-05-09 00:42 | 34.37143 | -119.61569 | 12928 ft | 303 kts | 271° |
| 2026-05-09 00:42 | 34.37150 | -119.64082 | 12539 ft | 298 kts | 271° |
| 2026-05-09 00:42 | 34.37160 | -119.66560 | 12104 ft | 295 kts | 271° |
| 2026-05-09 00:43 | 34.37112 | -119.69012 | 11682 ft | 292 kts | 268° |
| 2026-05-09 00:43 | 34.36960 | -119.71433 | 11269 ft | 287 kts | 265° |
| 2026-05-09 00:43 | 34.36756 | -119.73831 | 10827 ft | 285 kts | 264° |
| 2026-05-09 00:43 | 34.36548 | -119.76184 | 10423 ft | 283 kts | 265° |
| 2026-05-09 00:44 | 34.36349 | -119.78545 | 9986 ft | 281 kts | 265° |
| 2026-05-09 00:44 | 34.36161 | -119.80891 | 9542 ft | 279 kts | 265° |
| 2026-05-09 00:44 | 34.35980 | -119.83190 | 9122 ft | 275 kts | 265° |
| 2026-05-09 00:44 | 34.35815 | -119.85455 | 8778 ft | 267 kts | 266° |
| 2026-05-09 00:45 | 34.35691 | -119.87674 | 8465 ft | 256 kts | 268° |
| 2026-05-09 00:45 | 34.35589 | -119.89766 | 8153 ft | 246 kts | 268° |
| 2026-05-09 00:45 | 34.35489 | -119.91791 | 7837 ft | 241 kts | 268° |
| 2026-05-09 00:45 | 34.35386 | -119.93797 | 7514 ft | 238 kts | 269° |
| 2026-05-09 00:46 | 34.35279 | -119.95794 | 7158 ft | 238 kts | 269° |
| 2026-05-09 00:46 | 34.35172 | -119.97782 | 6824 ft | 237 kts | 269° |
| 2026-05-09 00:46 | 34.35064 | -119.99759 | 6491 ft | 235 kts | 269° |
| 2026-05-09 00:46 | 34.34957 | -120.01730 | 6128 ft | 234 kts | 269° |
| 2026-05-09 00:47 | 34.34851 | -120.03682 | 5770 ft | 233 kts | 269° |
| 2026-05-09 00:47 | 34.34744 | -120.05618 | 5429 ft | 231 kts | 269° |
| 2026-05-09 00:47 | 34.34638 | -120.07543 | 5108 ft | 229 kts | 269° |
| 2026-05-09 00:47 | 34.34533 | -120.09450 | 4759 ft | 227 kts | 269° |
| 2026-05-09 00:48 | 34.34375 | -120.11338 | 4409 ft | 226 kts | 266° |
| 2026-05-09 00:48 | 34.34164 | -120.13216 | 4073 ft | 224 kts | 266° |
| 2026-05-09 00:48 | 34.33946 | -120.15060 | 3997 ft | 220 kts | 266° |
| 2026-05-09 00:48 | 34.33728 | -120.16892 | 3986 ft | 215 kts | 266° |
| 2026-05-09 00:49 | 34.33514 | -120.18654 | 3847 ft | 214 kts | 266° |
| 2026-05-09 00:49 | 34.33296 | -120.20428 | 3596 ft | 211 kts | 266° |
| 2026-05-09 00:49 | 34.33361 | -120.22142 | 3388 ft | 201 kts | 295° |
| 2026-05-09 00:49 | 34.34235 | -120.23399 | 3182 ft | 197 kts | 326° |
| 2026-05-09 00:50 | 34.35476 | -120.24073 | 2945 ft | 196 kts | 346° |
| 2026-05-09 00:50 | 34.36823 | -120.24204 | 2880 ft | 195 kts | 1° |
| 2026-05-09 00:50 | 34.38159 | -120.23797 | 2878 ft | 202 kts | 25° |
| 2026-05-09 00:50 | 34.39190 | -120.22632 | 2880 ft | 209 kts | 52° |
| 2026-05-09 00:51 | 34.39772 | -120.20994 | 2882 ft | 213 kts | 70° |
| 2026-05-09 00:51 | 34.40124 | -120.19247 | 2881 ft | 214 kts | 73° |
| 2026-05-09 00:51 | 34.40463 | -120.17492 | 2888 ft | 214 kts | 72° |
| 2026-05-09 00:51 | 34.40815 | -120.15765 | 2879 ft | 212 kts | 72° |
| 2026-05-09 00:52 | 34.41177 | -120.14025 | 2882 ft | 213 kts | 72° |
| 2026-05-09 00:52 | 34.41537 | -120.12292 | 2891 ft | 213 kts | 72° |
| 2026-05-09 00:52 | 34.41898 | -120.10542 | 2896 ft | 213 kts | 72° |
| 2026-05-09 00:52 | 34.42229 | -120.08785 | 2894 ft | 215 kts | 77° |
| 2026-05-09 00:53 | 34.42347 | -120.06960 | 2843 ft | 219 kts | 85° |
| 2026-05-09 00:53 | 34.42357 | -120.05173 | 2690 ft | 208 kts | 86° |
| 2026-05-09 00:53 | 34.42366 | -120.03473 | 2540 ft | 197 kts | 86° |
| 2026-05-09 00:53 | 34.42394 | -120.01818 | 2366 ft | 196 kts | 85° |
| 2026-05-09 00:54 | 34.42431 | -120.00191 | 2165 ft | 194 kts | 85° |
| 2026-05-09 00:54 | 34.42468 | -119.98560 | 1987 ft | 193 kts | 85° |
| 2026-05-09 00:54 | 34.42503 | -119.96941 | 1829 ft | 186 kts | 86° |
| 2026-05-09 00:54 | 34.42532 | -119.95463 | 1708 ft | 168 kts | 85° |
| 2026-05-09 00:55 | 34.42563 | -119.94086 | 1421 ft | 159 kts | 86° |
| 2026-05-09 00:55 | 34.42592 | -119.92800 | 1184 ft | 152 kts | 86° |
| 2026-05-09 00:55 | 34.42622 | -119.91528 | 987 ft | 151 kts | 87° |
| 2026-05-09 00:55 | 34.42648 | -119.90263 | 777 ft | 149 kts | 88° |
| 2026-05-09 00:56 | 34.42674 | -119.89005 | 574 ft | 147 kts | 88° |
| 2026-05-09 00:56 | 34.42707 | -119.87811 | 466 ft | 141 kts | 89° |
| 2026-05-09 00:56 | 34.42730 | -119.86611 | 279 ft | 143 kts | 90° |
| 2026-05-09 00:56 | 34.42752 | -119.85397 | 54 ft | 143 kts | 91° |
| 2026-05-09 00:57 | 34.42771 | -119.84379 | 31 ft | 79 kts | 87° |
| 2026-05-09 00:57 | 34.42779 | -119.84036 | 31 ft | 23 kts | 90° |
| 2026-05-09 00:57 | 34.42764 | -119.83875 | 30 ft | 16 kts | 136° |
| 2026-05-09 00:57 | 34.42679 | -119.83815 | 28 ft | 14 kts | 116° |
| 2026-05-09 00:58 | 34.42673 | -119.83746 | 28 ft | 0 kts | 89° |
| 2026-05-09 00:59 | 34.42673 | -119.83723 | 28 ft | 4 kts | 92° |
| 2026-05-09 00:59 | 34.42650 | -119.83685 | 28 ft | 7 kts | 146° |
| 2026-05-09 00:59 | 34.42639 | -119.83676 | 28 ft | 0 kts | 146° |
| 2026-05-09 01:00 | 34.42625 | -119.83668 | 28 ft | 4 kts | 162° |
| 2026-05-09 01:00 | 34.42604 | -119.83667 | 28 ft | 2 kts | 189° |
| 2026-05-09 01:00 | 34.42593 | -119.83669 | 28 ft | 0 kts | 189° |
| 2026-05-09 01:00 | 34.42592 | -119.83669 | 28 ft | 0 kts | 189° |